Aviation Digital Data Service (ADDS)

Output produced by METARs form (1308 UTC 17 September 2019)
found at http://www.aviationweather.gov/metar/data/
 
TAF TAPA 171100Z 1712/1812 09015KT 9999 SCT020
       
TRPG 171300Z 10016KT 9999 BKN018 28/25 Q1015
TRPG 171200Z 11017KT 9999 SCT019 28/24 Q1015
TRPG 171100Z 11018KT 9999 SCT018 28/25 Q1014
TRPG 171000Z 10018KT 9999 -SHRA SCT016 26/25 Q1013
TAF TRPG 171100Z 1712/1812 09015KT 9999 SCT020
       
TKPK 171300Z 08017KT 9999 FEW022 30/25 Q1014
TKPK 171200Z 08018KT 9999 SCT018 29/25 Q1014
TKPK 171100Z 06015KT 9999 FEW017 29/25 Q1013
TKPK 171000Z 06013KT 9999 SCT016 28/25 Q1013
TKPK 171144Z 1712/1812 06014KT P6SM VCSH FEW018 SCT025 
     FM171400 08015KT P6SM FEW022 
     FM180200 08009KT P6SM FEW018 SCT030
       
TKPN 171200Z 11012KT 9999 HZ SCT020 ////// Q1014
TKPN 171100Z 10014KT 9999 HZ SCT018 ////// Q1013
TKPN 171000Z 10011KT 9999 HZ SCT016 ////// Q1013
TAF TKPN 171100Z 1712/1812 09015KT 9999 SCT020
       
TQPF 171300Z 11017KT 9999 FEW018 30/24 Q1015
TQPF 171200Z 09014KT 9999 FEW019 29/24 Q1014
TQPF 171100Z 09012KT 9999 SCT018 28/24 Q1014
TAF TQPF 171100Z 1712/1812 09015KT 9999 SCT020
       
TUPJ 171300Z 11011KT 10SM FEW019 31/23 A2996 RMK Q1014 VIS 30KM
TUPJ 171200Z 10012KT 10SM SCT018 30/24 A2996 RMK Q1014 VIS 30KM
TUPJ 171100Z 10010KT 10SM SCT018 29/24 A2994 RMK Q1014 VIS 30KM
TAF TUPJ 171100Z 1712/1812 09015KT 9999 SCT020